createdAt,value
2022-12-01T00:00:25.384Z,19.54
2022-12-01T00:01:25.374Z,19.48
2022-12-01T00:02:25.488Z,19.48
2022-12-01T00:03:25.423Z,19.55
2022-12-01T00:04:25.365Z,19.58
2022-12-01T00:05:25.329Z,19.51
2022-12-01T00:06:25.318Z,19.46
2022-12-01T00:07:25.342Z,19.65
2022-12-01T00:08:25.303Z,19.55
2022-12-01T00:09:25.290Z,19.61
2022-12-01T00:10:25.272Z,19.53
2022-12-01T00:11:25.262Z,19.40
2022-12-01T00:12:25.251Z,19.54
2022-12-01T00:13:25.240Z,19.58
2022-12-01T00:14:25.235Z,19.48
2022-12-01T00:15:25.217Z,19.54
2022-12-01T00:16:25.298Z,19.60
2022-12-01T00:17:25.195Z,19.53
2022-12-01T00:18:25.187Z,19.61
2022-12-01T00:19:25.177Z,19.54
2022-12-01T00:20:25.185Z,19.47
2022-12-01T00:21:25.150Z,19.50
2022-12-01T00:22:25.138Z,19.43
2022-12-01T00:23:25.127Z,19.63
2022-12-01T00:24:25.116Z,19.46
2022-12-01T00:25:25.105Z,19.50
2022-12-01T00:26:25.101Z,19.43
2022-12-01T00:27:25.093Z,19.58
2022-12-01T00:28:25.071Z,19.65
2022-12-01T00:29:25.061Z,19.53
2022-12-01T00:30:25.062Z,19.63
2022-12-01T00:31:25.079Z,19.39
2022-12-01T00:32:25.056Z,19.43
2022-12-01T00:33:25.015Z,19.46
2022-12-01T00:34:25.007Z,19.53
2022-12-01T00:35:24.994Z,19.47
2022-12-01T00:36:25.000Z,19.50
2022-12-01T00:37:24.972Z,19.58
2022-12-01T00:38:24.991Z,19.48
2022-12-01T00:39:24.948Z,19.55
2022-12-01T00:40:24.937Z,19.58
2022-12-01T00:41:24.925Z,19.50
2022-12-01T00:42:24.920Z,19.39
2022-12-01T00:43:24.904Z,19.51
2022-12-01T00:44:24.897Z,19.39
2022-12-01T00:45:24.882Z,19.48
2022-12-01T00:46:24.920Z,19.66
2022-12-01T00:47:24.859Z,19.48
2022-12-01T00:48:24.846Z,19.53
2022-12-01T00:49:24.838Z,19.55
2022-12-01T00:50:24.832Z,19.54
2022-12-01T00:51:24.814Z,19.68
2022-12-01T00:52:24.826Z,19.63
2022-12-01T00:53:24.809Z,19.46
2022-12-01T00:54:24.792Z,19.58
2022-12-01T00:55:24.769Z,19.60
2022-12-01T00:56:24.799Z,19.61
2022-12-01T00:57:24.748Z,19.47
2022-12-01T00:58:24.738Z,19.47
2022-12-01T00:59:24.724Z,19.63
2022-12-01T01:00:24.713Z,19.43
2022-12-01T01:01:24.745Z,19.46
2022-12-01T01:02:24.789Z,19.46
2022-12-01T01:03:24.681Z,19.46
2022-12-01T01:04:24.668Z,19.48
2022-12-01T01:05:24.657Z,19.55
2022-12-01T01:06:24.651Z,19.46
2022-12-01T01:07:24.672Z,19.54
2022-12-01T01:08:24.676Z,19.47
2022-12-01T01:09:24.612Z,19.50
2022-12-01T01:10:24.602Z,19.57
2022-12-01T01:11:24.590Z,19.63
2022-12-01T01:12:24.579Z,19.57
2022-12-01T01:13:24.567Z,19.60
2022-12-01T01:14:24.572Z,19.57
2022-12-01T01:15:24.546Z,19.58
2022-12-01T01:16:24.584Z,19.63
2022-12-01T01:17:24.522Z,19.58
2022-12-01T01:18:24.512Z,19.61
2022-12-01T01:19:24.502Z,19.57
2022-12-01T01:20:24.495Z,19.58
2022-12-01T01:21:24.482Z,19.61
2022-12-01T01:22:24.466Z,19.58
2022-12-01T01:23:24.456Z,19.61
2022-12-01T01:24:24.461Z,19.69
2022-12-01T01:25:24.433Z,19.63
2022-12-01T01:26:24.429Z,19.63
2022-12-01T01:27:24.411Z,19.69
2022-12-01T01:28:24.399Z,19.65
2022-12-01T01:29:24.391Z,19.63
2022-12-01T01:30:24.422Z,19.68
2022-12-01T01:31:24.366Z,19.68
2022-12-01T01:32:24.376Z,19.69
2022-12-01T01:33:24.343Z,19.65
2022-12-01T01:34:24.333Z,19.61
2022-12-01T01:35:24.325Z,19.65
2022-12-01T01:36:24.309Z,19.68
2022-12-01T01:37:24.298Z,19.65
2022-12-01T01:38:24.311Z,19.66
2022-12-01T01:39:24.278Z,19.68
2022-12-01T01:40:24.288Z,19.66
2022-12-01T01:41:24.262Z,19.63
2022-12-01T01:42:24.242Z,19.63
2022-12-01T01:43:24.232Z,19.69
2022-12-01T01:44:24.250Z,19.66
2022-12-01T01:45:24.218Z,19.63
2022-12-01T01:46:24.310Z,19.60
2022-12-01T01:47:24.189Z,19.63
2022-12-01T01:48:24.180Z,19.61
2022-12-01T01:49:24.165Z,19.66
2022-12-01T01:50:24.184Z,19.66
2022-12-01T01:51:24.141Z,19.63
2022-12-01T01:52:24.130Z,19.57
2022-12-01T01:53:24.119Z,19.66
2022-12-01T01:54:24.110Z,19.60
2022-12-01T01:55:24.098Z,19.63
2022-12-01T01:56:24.112Z,19.72
2022-12-01T01:57:24.076Z,19.72
2022-12-01T01:58:24.066Z,19.63
2022-12-01T01:59:24.052Z,19.60
2022-12-01T02:00:24.040Z,19.66
2022-12-01T02:01:24.100Z,19.69
2022-12-01T02:02:24.049Z,19.66
2022-12-01T02:03:24.008Z,19.70
2022-12-01T02:04:23.996Z,19.75
2022-12-01T02:05:23.987Z,19.69
2022-12-01T02:06:23.977Z,19.66
2022-12-01T02:07:24.016Z,19.70
2022-12-01T02:08:23.973Z,19.73
2022-12-01T02:09:23.941Z,19.63
2022-12-01T02:10:23.930Z,19.69
2022-12-01T02:11:23.918Z,19.69
2022-12-01T02:12:23.924Z,19.73
2022-12-01T02:13:23.906Z,19.68
2022-12-01T02:14:23.891Z,19.69
2022-12-01T02:15:23.873Z,19.83
2022-12-01T02:16:23.923Z,19.76
2022-12-01T02:17:23.850Z,19.79
2022-12-01T02:18:23.839Z,19.75
2022-12-01T02:19:23.831Z,19.76
2022-12-01T02:20:23.834Z,19.73
2022-12-01T02:21:23.805Z,19.75
2022-12-01T02:22:23.793Z,19.75
2022-12-01T02:23:23.787Z,19.73
2022-12-01T02:24:23.771Z,19.78
2022-12-01T02:25:23.761Z,19.72
2022-12-01T02:26:23.755Z,19.78
2022-12-01T02:27:23.738Z,19.70
2022-12-01T02:28:23.744Z,19.75
2022-12-01T02:29:23.715Z,19.83
2022-12-01T02:30:23.764Z,19.80
2022-12-01T02:31:23.745Z,19.78
2022-12-01T02:32:23.695Z,19.83
2022-12-01T02:33:23.671Z,19.79
2022-12-01T02:34:23.659Z,19.75
2022-12-01T02:35:23.649Z,19.84
2022-12-01T02:36:23.639Z,19.75
2022-12-01T02:37:23.625Z,19.75
2022-12-01T02:38:23.620Z,19.80
2022-12-01T02:39:23.604Z,19.79
2022-12-01T02:40:23.591Z,19.78
2022-12-01T02:41:23.583Z,19.79
2022-12-01T02:42:23.570Z,19.87
2022-12-01T02:43:23.558Z,19.78
2022-12-01T02:44:23.604Z,19.75
2022-12-01T02:45:23.540Z,19.73
2022-12-01T02:46:23.585Z,19.75
2022-12-01T02:47:23.512Z,19.79
2022-12-01T02:48:23.502Z,19.80
2022-12-01T02:49:23.494Z,19.72
2022-12-01T02:50:23.509Z,19.76
2022-12-01T02:51:23.468Z,19.83
2022-12-01T02:52:23.457Z,19.84
2022-12-01T02:53:23.446Z,19.83
2022-12-01T02:54:23.434Z,19.88
2022-12-01T02:55:23.422Z,19.79
2022-12-01T02:56:23.428Z,19.90
2022-12-01T02:57:23.400Z,19.86
2022-12-01T02:58:23.389Z,19.84
2022-12-01T02:59:23.381Z,19.86
2022-12-01T03:00:23.388Z,19.83
2022-12-01T03:01:23.409Z,19.87
2022-12-01T03:02:23.397Z,19.86
2022-12-01T03:03:23.334Z,19.88
2022-12-01T03:04:23.321Z,19.84
2022-12-01T03:05:23.310Z,19.87
2022-12-01T03:06:23.301Z,19.80
2022-12-01T03:07:23.325Z,19.84
2022-12-01T03:08:23.284Z,19.84
2022-12-01T03:09:23.266Z,19.84
2022-12-01T03:10:23.256Z,19.83
2022-12-01T03:11:23.249Z,19.84
2022-12-01T03:12:23.232Z,19.83
2022-12-01T03:13:23.223Z,19.80
2022-12-01T03:14:23.220Z,19.87
2022-12-01T03:15:23.200Z,19.83
2022-12-01T03:16:23.284Z,19.84
2022-12-01T03:17:23.176Z,19.90
2022-12-01T03:18:23.173Z,19.87
2022-12-01T03:19:23.154Z,19.86
2022-12-01T03:20:23.163Z,19.95
2022-12-01T03:21:23.134Z,19.84
2022-12-01T03:22:23.127Z,19.90
2022-12-01T03:23:23.109Z,19.78
2022-12-01T03:24:23.098Z,19.84
2022-12-01T03:25:23.086Z,19.90
2022-12-01T03:26:23.106Z,19.90
2022-12-01T03:27:23.065Z,19.86
2022-12-01T03:28:23.163Z,19.83
2022-12-01T03:29:23.042Z,19.80
2022-12-01T03:30:23.030Z,19.86
2022-12-01T03:31:23.132Z,19.84
2022-12-01T03:32:23.047Z,19.84
2022-12-01T03:33:22.996Z,19.86
2022-12-01T03:34:22.987Z,19.83
2022-12-01T03:35:22.974Z,19.95
2022-12-01T03:36:22.964Z,19.83
2022-12-01T03:37:22.951Z,19.84
2022-12-01T03:38:22.947Z,19.93
2022-12-01T03:39:22.930Z,19.79
2022-12-01T03:40:22.919Z,19.94
2022-12-01T03:41:22.907Z,19.88
2022-12-01T03:42:22.895Z,19.93
2022-12-01T03:43:22.885Z,19.86
2022-12-01T03:44:22.892Z,19.86
2022-12-01T03:45:22.862Z,19.86
2022-12-01T03:46:22.896Z,19.88
2022-12-01T03:47:22.839Z,19.86
2022-12-01T03:48:22.849Z,19.83
2022-12-01T03:49:22.818Z,19.84
2022-12-01T03:50:22.830Z,19.87
2022-12-01T03:51:22.796Z,19.88
2022-12-01T03:52:22.785Z,19.93
2022-12-01T03:53:22.774Z,19.91
2022-12-01T03:54:22.767Z,19.86
2022-12-01T03:55:22.752Z,19.95
2022-12-01T03:56:22.745Z,19.84
2022-12-01T03:57:22.731Z,19.86
2022-12-01T03:58:22.720Z,19.86
2022-12-01T03:59:22.708Z,19.84
2022-12-01T04:00:22.695Z,19.84
2022-12-01T04:01:22.724Z,19.83
2022-12-01T04:02:22.736Z,19.90
2022-12-01T04:03:22.666Z,19.97
2022-12-01T04:04:22.759Z,19.87
2022-12-01T04:05:25.427Z,19.87
2022-12-01T04:06:22.631Z,19.86
2022-12-01T04:07:22.699Z,19.91
2022-12-01T04:08:22.620Z,19.90
2022-12-01T04:09:22.598Z,19.91
2022-12-01T04:10:22.588Z,19.87
2022-12-01T04:11:22.571Z,19.84
2022-12-01T04:12:22.559Z,19.87
2022-12-01T04:13:22.551Z,19.80
2022-12-01T04:14:22.543Z,19.93
2022-12-01T04:15:22.526Z,19.91
2022-12-01T04:16:22.569Z,19.90
2022-12-01T04:17:22.504Z,19.83
2022-12-01T04:18:22.499Z,19.91
2022-12-01T04:19:22.482Z,19.88
2022-12-01T04:20:22.497Z,19.86
2022-12-01T04:21:22.458Z,19.90
2022-12-01T04:22:22.447Z,19.91
2022-12-01T04:23:22.436Z,19.87
2022-12-01T04:24:22.425Z,19.88
2022-12-01T04:25:22.413Z,19.87
2022-12-01T04:26:22.425Z,19.88
2022-12-01T04:27:22.391Z,19.87
2022-12-01T04:28:22.380Z,19.98
2022-12-01T04:29:22.369Z,19.83
2022-12-01T04:30:22.359Z,19.91
2022-12-01T04:31:22.435Z,19.90
2022-12-01T04:32:22.342Z,19.94
2022-12-01T04:33:22.324Z,19.93
2022-12-01T04:34:22.314Z,19.88
2022-12-01T04:35:22.300Z,19.88
2022-12-01T04:36:22.310Z,19.91
2022-12-01T04:37:22.278Z,19.94
2022-12-01T04:38:27.406Z,19.88
2022-12-01T04:39:23.257Z,19.88
2022-12-01T04:40:22.245Z,19.91
2022-12-01T04:41:22.235Z,19.90
2022-12-01T04:42:22.223Z,19.93
2022-12-01T04:43:22.212Z,19.94
2022-12-01T04:44:22.217Z,19.86
2022-12-01T04:45:22.189Z,19.90
2022-12-01T04:46:22.213Z,19.93
2022-12-01T04:47:22.166Z,19.88
2022-12-01T04:48:22.166Z,19.88
2022-12-01T04:49:22.145Z,19.91
2022-12-01T04:50:22.155Z,19.93
2022-12-01T04:51:22.122Z,19.94
2022-12-01T04:52:22.128Z,19.91
2022-12-01T04:53:22.118Z,19.88
2022-12-01T04:54:22.088Z,19.90
2022-12-01T04:55:22.077Z,19.90
2022-12-01T04:56:22.071Z,19.91
2022-12-01T04:57:22.055Z,19.87
2022-12-01T04:58:22.044Z,19.93
2022-12-01T04:59:22.033Z,19.90
2022-12-01T05:00:22.020Z,19.98
2022-12-01T05:01:22.081Z,19.90
2022-12-01T05:02:22.085Z,19.91
2022-12-01T05:03:21.988Z,19.93
2022-12-01T05:04:21.978Z,19.97
2022-12-01T05:05:21.965Z,19.97
2022-12-01T05:06:21.954Z,19.97
2022-12-01T05:07:22.005Z,19.97
2022-12-01T05:08:21.957Z,19.95
2022-12-01T05:09:21.921Z,19.94
2022-12-01T05:10:21.909Z,19.95
2022-12-01T05:11:21.898Z,19.95
2022-12-01T05:12:21.887Z,19.97
2022-12-01T05:13:21.876Z,19.95
2022-12-01T05:14:21.895Z,19.97
2022-12-01T05:15:21.854Z,19.97
2022-12-01T05:16:21.912Z,20.00
2022-12-01T05:17:21.830Z,19.98
2022-12-01T05:18:21.839Z,19.94
2022-12-01T05:19:21.808Z,19.98
2022-12-01T05:20:21.813Z,19.94
2022-12-01T05:21:21.786Z,19.94
2022-12-01T05:22:36.712Z,19.94
2022-12-01T05:23:22.766Z,19.97
2022-12-01T05:24:21.769Z,19.97
2022-12-01T05:25:21.740Z,19.93
2022-12-01T05:26:21.736Z,19.93
2022-12-01T05:27:21.718Z,19.98
2022-12-01T05:28:21.710Z,19.87
2022-12-01T05:29:21.697Z,19.97
2022-12-01T05:30:25.637Z,19.98
2022-12-01T05:31:22.729Z,19.95
2022-12-01T05:32:21.662Z,19.97
2022-12-01T05:33:21.650Z,19.90
2022-12-01T05:34:21.647Z,19.95
2022-12-01T05:35:21.628Z,19.98
2022-12-01T05:36:21.617Z,19.95
2022-12-01T05:37:21.613Z,19.93
2022-12-01T05:38:21.595Z,19.97
2022-12-01T05:39:21.583Z,19.97
2022-12-01T05:40:21.595Z,19.97
2022-12-01T05:41:21.561Z,19.97
2022-12-01T05:42:21.554Z,19.97
2022-12-01T05:43:26.919Z,19.91
2022-12-01T05:44:22.527Z,20.00
2022-12-01T05:45:21.516Z,20.00
2022-12-01T05:46:21.562Z,19.97
2022-12-01T05:47:21.494Z,20.00
2022-12-01T05:48:21.482Z,19.94
2022-12-01T05:49:21.503Z,19.95
2022-12-01T05:50:21.460Z,19.94
2022-12-01T05:51:21.449Z,19.97
2022-12-01T05:52:21.437Z,19.93
2022-12-01T05:53:21.430Z,19.97
2022-12-01T05:54:21.419Z,20.00
2022-12-01T05:55:21.425Z,19.97
2022-12-01T05:56:21.412Z,19.97
2022-12-01T05:57:21.382Z,20.02
2022-12-01T05:58:21.370Z,20.00
2022-12-01T05:59:21.359Z,19.98
2022-12-01T06:00:21.347Z,19.94
2022-12-01T06:01:21.357Z,19.97
2022-12-01T06:02:21.387Z,19.94
2022-12-01T06:03:21.314Z,20.00
2022-12-01T06:04:21.327Z,19.94
2022-12-01T06:05:21.295Z,19.97
2022-12-01T06:06:21.281Z,19.95
2022-12-01T06:07:21.335Z,19.97
2022-12-01T06:08:21.259Z,20.00
2022-12-01T06:09:21.247Z,19.97
2022-12-01T06:10:21.236Z,19.95
2022-12-01T06:11:21.225Z,19.97
2022-12-01T06:12:21.236Z,19.95
2022-12-01T06:13:21.214Z,19.94
2022-12-01T06:14:21.191Z,19.94
2022-12-01T06:15:21.179Z,19.97
2022-12-01T06:16:21.209Z,19.97
2022-12-01T06:17:21.156Z,19.97
2022-12-01T06:18:21.149Z,19.93
2022-12-01T06:19:21.318Z,20.00
2022-12-01T06:20:21.124Z,19.95
2022-12-01T06:21:21.112Z,19.97
2022-12-01T06:22:21.101Z,19.94
2022-12-01T06:23:21.094Z,19.98
2022-12-01T06:24:21.079Z,19.93
2022-12-01T06:25:21.082Z,20.00
2022-12-01T06:26:21.055Z,20.00
2022-12-01T06:27:21.045Z,19.95
2022-12-01T06:28:21.051Z,19.95
2022-12-01T06:29:21.022Z,19.97
2022-12-01T06:30:21.012Z,19.93
2022-12-01T06:31:21.052Z,19.97
2022-12-01T06:32:20.990Z,19.97
2022-12-01T06:33:20.980Z,19.97
2022-12-01T06:34:20.965Z,19.97
2022-12-01T06:35:20.955Z,19.98
2022-12-01T06:36:20.944Z,19.97
2022-12-01T06:37:20.938Z,19.97
2022-12-01T06:38:20.922Z,19.95
2022-12-01T06:39:20.910Z,19.97
2022-12-01T06:40:20.899Z,19.95
2022-12-01T06:41:20.890Z,19.95
2022-12-01T06:42:20.878Z,19.95
2022-12-01T06:43:20.883Z,19.98
2022-12-01T06:44:20.880Z,19.97
2022-12-01T06:45:20.843Z,20.03
2022-12-01T06:46:20.890Z,20.00
2022-12-01T06:47:20.820Z,19.97
2022-12-01T06:48:20.810Z,19.97
2022-12-01T06:49:20.803Z,19.97
2022-12-01T06:50:20.788Z,19.94
2022-12-01T06:51:20.776Z,19.94
2022-12-01T06:52:20.764Z,19.94
2022-12-01T06:53:20.754Z,19.94
2022-12-01T06:54:20.741Z,19.97
2022-12-01T06:55:20.737Z,19.94
2022-12-01T06:56:20.720Z,20.02
2022-12-01T06:57:20.710Z,19.98
2022-12-01T06:58:20.698Z,19.98
2022-12-01T06:59:20.685Z,20.00
2022-12-01T07:00:20.694Z,19.97
2022-12-01T07:01:20.738Z,19.95
2022-12-01T07:02:20.665Z,19.97
2022-12-01T07:03:20.640Z,19.93
2022-12-01T07:04:20.628Z,20.02
2022-12-01T07:05:20.617Z,20.02
2022-12-01T07:06:20.606Z,19.93
2022-12-01T07:07:20.630Z,19.97
2022-12-01T07:08:20.584Z,19.97
2022-12-01T07:09:20.574Z,19.98
2022-12-01T07:10:20.561Z,19.98
2022-12-01T07:11:20.557Z,19.97
2022-12-01T07:12:20.538Z,19.97
2022-12-01T07:13:20.548Z,19.93
2022-12-01T07:14:20.517Z,19.95
2022-12-01T07:15:20.505Z,19.90
2022-12-01T07:16:20.540Z,19.94
2022-12-01T07:17:20.483Z,19.98
2022-12-01T07:18:20.473Z,20.02
2022-12-01T07:19:20.491Z,19.97
2022-12-01T07:20:20.450Z,19.95
2022-12-01T07:21:20.443Z,20.00
2022-12-01T07:22:20.430Z,19.98
2022-12-01T07:23:20.416Z,19.98
2022-12-01T07:24:20.405Z,19.98
2022-12-01T07:25:20.400Z,19.97
2022-12-01T07:26:20.383Z,19.95
2022-12-01T07:27:20.370Z,19.98
2022-12-01T07:28:20.360Z,19.94
2022-12-01T07:29:20.350Z,19.98
2022-12-01T07:30:24.164Z,20.02
2022-12-01T07:31:21.378Z,20.00
2022-12-01T07:32:20.335Z,19.94
2022-12-01T07:33:20.304Z,19.94
2022-12-01T07:34:20.292Z,20.02
2022-12-01T07:35:20.280Z,19.95
2022-12-01T07:36:20.271Z,20.02
2022-12-01T07:37:20.265Z,19.97
2022-12-01T07:38:22.274Z,19.97
2022-12-01T07:39:20.239Z,19.97
2022-12-01T07:40:20.227Z,19.93
2022-12-01T07:41:20.213Z,19.97
2022-12-01T07:42:20.205Z,19.93
2022-12-01T07:43:20.197Z,19.95
2022-12-01T07:44:20.180Z,19.97
2022-12-01T07:45:20.169Z,20.02
2022-12-01T07:46:23.308Z,19.98
2022-12-01T07:47:20.149Z,19.94
2022-12-01T07:48:20.157Z,19.95
2022-12-01T07:49:20.145Z,19.93
2022-12-01T07:50:20.113Z,20.00
2022-12-01T07:51:20.109Z,19.95
2022-12-01T07:52:20.128Z,19.97
2022-12-01T07:53:20.095Z,19.95
2022-12-01T07:54:20.069Z,19.97
2022-12-01T07:55:20.063Z,19.93
2022-12-01T07:56:20.045Z,20.02
2022-12-01T07:57:20.035Z,19.94
2022-12-01T07:58:20.028Z,19.94
2022-12-01T07:59:20.013Z,19.94
2022-12-01T08:00:20.000Z,20.00
2022-12-01T08:01:20.077Z,19.97
2022-12-01T08:02:20.096Z,19.95
2022-12-01T08:03:19.969Z,19.97
2022-12-01T08:04:20.104Z,20.08
2022-12-01T08:05:19.946Z,19.95
2022-12-01T08:06:19.934Z,19.98
2022-12-01T08:07:19.991Z,20.00
2022-12-01T08:08:19.950Z,19.95
2022-12-01T08:09:19.900Z,19.95
2022-12-01T08:10:19.891Z,20.00
2022-12-01T08:11:19.882Z,19.94
2022-12-01T08:12:19.866Z,20.02
2022-12-01T08:13:19.861Z,20.02
2022-12-01T08:14:19.844Z,20.00
2022-12-01T08:15:19.835Z,19.97
2022-12-01T08:16:19.821Z,20.00
2022-12-01T08:17:19.825Z,19.97
2022-12-01T08:18:19.799Z,20.03
2022-12-01T08:19:19.794Z,20.02
2022-12-01T08:20:23.890Z,19.98
2022-12-01T08:21:19.765Z,20.00
2022-12-01T08:22:19.754Z,20.03
2022-12-01T08:23:19.743Z,20.08
2022-12-01T08:24:19.732Z,19.97
2022-12-01T08:25:19.736Z,19.98
2022-12-01T08:26:19.711Z,19.97
2022-12-01T08:27:19.699Z,19.98
2022-12-01T08:28:19.690Z,20.06
2022-12-01T08:29:20.472Z,20.00
2022-12-01T08:30:19.666Z,19.98
2022-12-01T08:31:19.749Z,20.03
2022-12-01T08:32:19.641Z,19.95
2022-12-01T08:33:19.633Z,20.03
2022-12-01T08:34:19.620Z,19.95
2022-12-01T08:35:19.610Z,20.02
2022-12-01T08:36:19.624Z,20.02
2022-12-01T08:37:19.602Z,20.00
2022-12-01T08:38:19.576Z,20.02
2022-12-01T08:39:19.564Z,19.98
2022-12-01T08:40:19.552Z,19.98
2022-12-01T08:41:19.543Z,20.02
2022-12-01T08:42:19.529Z,19.98
2022-12-01T08:43:49.466Z,20.00
2022-12-01T08:44:20.572Z,20.08
2022-12-01T08:45:19.495Z,20.02
2022-12-01T08:46:19.570Z,20.00
2022-12-01T08:47:19.474Z,20.02
2022-12-01T08:48:19.464Z,20.03
2022-12-01T08:49:19.467Z,19.97
2022-12-01T08:50:19.440Z,20.05
2022-12-01T08:51:19.433Z,20.00
2022-12-01T08:52:19.479Z,20.08
2022-12-01T08:53:19.408Z,20.05
2022-12-01T08:54:19.394Z,20.00
2022-12-01T08:55:19.398Z,20.03
2022-12-01T08:56:19.372Z,20.05
2022-12-01T08:57:19.361Z,20.03
2022-12-01T08:58:19.350Z,20.00
2022-12-01T08:59:19.338Z,20.02
2022-12-01T09:00:19.328Z,19.98
2022-12-01T09:01:19.495Z,20.03
2022-12-01T09:02:19.346Z,20.02
2022-12-01T09:03:19.337Z,19.98
2022-12-01T09:04:19.284Z,20.03
2022-12-01T09:05:19.271Z,20.02
2022-12-01T09:06:19.280Z,20.00
2022-12-01T09:07:24.586Z,19.95
2022-12-01T09:08:20.258Z,19.98
2022-12-01T09:09:19.227Z,20.08
2022-12-01T09:10:19.215Z,19.98
2022-12-01T09:11:19.217Z,20.06
2022-12-01T09:12:19.192Z,20.06
2022-12-01T09:13:19.202Z,20.05
2022-12-01T09:14:19.170Z,20.02
2022-12-01T09:15:19.160Z,20.03
2022-12-01T09:16:19.214Z,20.05
2022-12-01T09:17:19.138Z,20.00
2022-12-01T09:18:19.126Z,20.06
2022-12-01T09:19:24.267Z,20.00
2022-12-01T09:20:20.102Z,20.03
2022-12-01T09:21:19.090Z,20.08
2022-12-01T09:22:19.083Z,20.10
2022-12-01T09:23:19.070Z,20.02
2022-12-01T09:24:19.084Z,20.02
2022-12-01T09:25:19.052Z,20.12
2022-12-01T09:26:19.049Z,20.03
2022-12-01T09:27:19.026Z,20.10
2022-12-01T09:28:19.027Z,20.02
2022-12-01T09:29:19.005Z,20.12
2022-12-01T09:30:18.990Z,20.13
2022-12-01T09:31:19.023Z,20.00
2022-12-01T09:32:18.968Z,20.03
2022-12-01T09:33:18.956Z,19.97
2022-12-01T09:34:18.946Z,20.10
2022-12-01T09:35:23.211Z,20.08
2022-12-01T09:36:18.923Z,20.02
2022-12-01T09:37:18.918Z,20.05
2022-12-01T09:38:18.901Z,20.09
2022-12-01T09:39:18.890Z,20.10
2022-12-01T09:40:18.899Z,20.05
2022-12-01T09:41:18.869Z,20.10
2022-12-01T09:42:18.856Z,20.00
2022-12-01T09:43:18.850Z,20.03
2022-12-01T09:44:18.834Z,20.00
2022-12-01T09:45:18.824Z,20.03
2022-12-01T09:46:18.886Z,20.02
2022-12-01T09:47:18.799Z,20.05
2022-12-01T09:48:18.789Z,20.02
2022-12-01T09:49:18.787Z,20.10
2022-12-01T09:50:18.767Z,20.02
2022-12-01T09:51:18.755Z,20.09
2022-12-01T09:52:18.745Z,20.03
2022-12-01T09:53:18.732Z,20.00
2022-12-01T09:54:18.722Z,20.03
2022-12-01T09:55:18.720Z,19.98
2022-12-01T09:56:18.762Z,20.00
2022-12-01T09:57:18.688Z,19.98
2022-12-01T09:58:18.678Z,20.00
2022-12-01T09:59:18.665Z,20.02
2022-12-01T10:00:18.655Z,20.03
2022-12-01T10:01:23.042Z,20.03
2022-12-01T10:02:19.674Z,20.05
2022-12-01T10:03:18.621Z,20.02
2022-12-01T10:04:18.609Z,20.08
2022-12-01T10:05:18.644Z,19.98
2022-12-01T10:06:27.097Z,20.03
2022-12-01T10:07:19.760Z,20.06
2022-12-01T10:08:22.493Z,19.98
2022-12-01T10:09:19.554Z,20.05
2022-12-01T10:10:18.680Z,20.08
2022-12-01T10:11:18.532Z,20.10
2022-12-01T10:12:18.557Z,20.03
2022-12-01T10:13:18.533Z,20.10
2022-12-01T10:14:20.434Z,20.03
2022-12-01T10:15:18.486Z,20.00
2022-12-01T10:16:18.537Z,20.09
2022-12-01T10:17:18.465Z,20.05
2022-12-01T10:18:18.452Z,20.09
2022-12-01T10:19:18.461Z,19.98
2022-12-01T10:20:18.443Z,19.98
2022-12-01T10:21:18.419Z,20.13
2022-12-01T10:22:18.408Z,20.02
2022-12-01T10:23:18.399Z,20.03
2022-12-01T10:24:18.384Z,20.05
2022-12-01T10:25:18.380Z,20.05
2022-12-01T10:26:18.362Z,20.02
2022-12-01T10:27:18.351Z,20.02
2022-12-01T10:28:18.356Z,19.98
2022-12-01T10:29:18.330Z,20.03
2022-12-01T10:30:18.425Z,20.13
2022-12-01T10:31:18.382Z,20.12
2022-12-01T10:32:18.293Z,20.02
2022-12-01T10:33:18.284Z,20.02
2022-12-01T10:34:18.274Z,20.10
2022-12-01T10:35:18.261Z,20.03
2022-12-01T10:36:18.250Z,20.06
2022-12-01T10:37:18.288Z,20.06
2022-12-01T10:38:18.231Z,20.02
2022-12-01T10:39:18.217Z,20.06
2022-12-01T10:40:18.299Z,20.03
2022-12-01T10:41:18.195Z,20.08
2022-12-01T10:42:18.185Z,20.06
2022-12-01T10:43:18.186Z,20.02
2022-12-01T10:44:18.176Z,20.10
2022-12-01T10:45:18.154Z,20.05
2022-12-01T10:46:18.178Z,20.06
2022-12-01T10:47:18.128Z,20.05
2022-12-01T10:48:18.117Z,20.05
2022-12-01T10:49:18.112Z,20.06
2022-12-01T10:50:18.169Z,20.06
2022-12-01T10:51:18.082Z,20.06
2022-12-01T10:52:18.070Z,20.08
2022-12-01T10:53:18.060Z,20.02
2022-12-01T10:54:18.053Z,20.08
2022-12-01T10:55:18.066Z,20.05
2022-12-01T10:56:18.074Z,20.02
2022-12-01T10:57:18.013Z,20.09
2022-12-01T10:58:18.001Z,20.12
2022-12-01T10:59:17.991Z,20.09
2022-12-01T11:00:42.969Z,20.09
2022-12-01T11:01:19.129Z,20.10
2022-12-01T11:02:18.194Z,20.08
2022-12-01T11:03:21.586Z,20.06
2022-12-01T11:04:17.935Z,20.06
2022-12-01T11:05:17.924Z,20.09
2022-12-01T11:06:17.918Z,20.08
2022-12-01T11:07:17.908Z,20.05
2022-12-01T11:08:17.891Z,20.08
2022-12-01T11:09:22.813Z,20.06
2022-12-01T11:10:18.867Z,20.06
2022-12-01T11:11:17.857Z,20.06
2022-12-01T11:12:17.849Z,20.09
2022-12-01T11:13:17.856Z,20.06
2022-12-01T11:14:17.825Z,20.06
2022-12-01T11:15:17.811Z,20.08
2022-12-01T11:16:17.883Z,20.08
2022-12-01T11:17:17.801Z,20.06
2022-12-01T11:18:17.778Z,20.05
2022-12-01T11:19:21.956Z,20.10
2022-12-01T11:20:18.848Z,20.09
2022-12-01T11:21:17.744Z,20.06
2022-12-01T11:22:17.732Z,20.10
2022-12-01T11:23:17.722Z,20.08
2022-12-01T11:24:17.710Z,20.08
2022-12-01T11:25:17.706Z,20.09
2022-12-01T11:26:17.688Z,20.13
2022-12-01T11:27:17.678Z,20.09
2022-12-01T11:28:17.666Z,20.10
2022-12-01T11:29:17.655Z,20.12
2022-12-01T11:30:17.642Z,20.05
2022-12-01T11:31:17.693Z,20.06
2022-12-01T11:32:17.733Z,20.09
2022-12-01T11:33:17.610Z,20.06
2022-12-01T11:34:17.599Z,20.08
2022-12-01T11:35:17.587Z,20.06
2022-12-01T11:36:17.576Z,20.09
2022-12-01T11:37:17.573Z,20.08
2022-12-01T11:38:32.825Z,20.15
2022-12-01T11:39:18.541Z,20.08
2022-12-01T11:40:17.531Z,20.08
2022-12-01T11:41:17.521Z,20.18
2022-12-01T11:42:17.507Z,20.13
2022-12-01T11:43:17.515Z,20.08
2022-12-01T11:44:43.258Z,20.05
2022-12-01T11:45:18.473Z,20.08
2022-12-01T11:46:17.509Z,20.08
2022-12-01T11:47:24.960Z,20.08
2022-12-01T11:48:18.463Z,20.09
2022-12-01T11:49:17.430Z,20.12
2022-12-01T11:50:17.420Z,20.13
2022-12-01T11:51:17.408Z,20.05
2022-12-01T11:52:17.399Z,20.12
2022-12-01T11:53:17.386Z,20.06
2022-12-01T11:54:17.389Z,20.06
2022-12-01T11:55:17.364Z,20.08
2022-12-01T11:56:17.364Z,20.10
2022-12-01T11:57:33.594Z,20.06
2022-12-01T11:58:18.334Z,20.08
2022-12-01T11:59:17.337Z,20.05
2022-12-01T12:00:17.318Z,20.09
2022-12-01T12:01:21.827Z,20.10
2022-12-01T12:02:17.358Z,20.09
2022-12-01T12:03:17.319Z,20.08
2022-12-01T12:04:17.277Z,20.06
2022-12-01T12:05:17.252Z,20.09
2022-12-01T12:06:39.488Z,20.10
2022-12-01T12:07:18.227Z,20.15
2022-12-01T12:08:17.217Z,20.10
2022-12-01T12:09:17.206Z,20.10
2022-12-01T12:10:17.276Z,20.06
2022-12-01T12:11:17.183Z,20.05
2022-12-01T12:12:17.177Z,20.08
2022-12-01T12:13:17.161Z,20.09
2022-12-01T12:14:17.150Z,20.09
2022-12-01T12:15:17.138Z,20.09
2022-12-01T12:16:17.132Z,20.12
2022-12-01T12:17:17.150Z,20.12
2022-12-01T12:18:17.135Z,20.10
2022-12-01T12:19:17.093Z,20.12
2022-12-01T12:20:17.640Z,20.10
2022-12-01T12:21:17.071Z,20.08
2022-12-01T12:22:17.061Z,20.06
2022-12-01T12:23:17.049Z,20.08
2022-12-01T12:24:17.043Z,20.09
2022-12-01T12:25:17.027Z,20.09
2022-12-01T12:26:17.015Z,20.05
2022-12-01T12:27:17.002Z,20.09
2022-12-01T12:28:16.991Z,20.08
2022-12-01T12:29:16.981Z,20.10
2022-12-01T12:30:17.060Z,20.10
2022-12-01T12:31:16.990Z,20.13
2022-12-01T12:32:16.948Z,20.05
2022-12-01T12:33:16.936Z,20.08
2022-12-01T12:34:16.924Z,20.16
2022-12-01T12:35:16.914Z,20.09
2022-12-01T12:36:16.925Z,20.06
2022-12-01T12:37:17.489Z,20.16
2022-12-01T12:38:16.882Z,20.10
2022-12-01T12:39:17.206Z,20.08
2022-12-01T12:40:16.956Z,20.12
2022-12-01T12:41:16.846Z,20.10
2022-12-01T12:42:16.845Z,20.13
2022-12-01T12:43:16.825Z,20.09
2022-12-01T12:44:16.814Z,20.06
2022-12-01T12:45:16.802Z,20.12
2022-12-01T12:46:16.832Z,20.09
2022-12-01T12:47:16.780Z,20.09
2022-12-01T12:48:16.775Z,20.09
2022-12-01T12:49:20.727Z,20.09
2022-12-01T12:50:16.785Z,20.13
2022-12-01T12:51:16.735Z,20.12
2022-12-01T12:52:16.745Z,20.13